createdAt,value
2023-01-22T00:01:25.642Z,-0.24
2023-01-22T00:03:54.891Z,-0.20
2023-01-22T00:06:21.956Z,-0.21
2023-01-22T00:08:48.306Z,-0.39
2023-01-22T00:11:16.152Z,-0.29
2023-01-22T00:13:42.714Z,-0.38
2023-01-22T00:16:10.346Z,-0.32
2023-01-22T00:18:36.689Z,-0.38
2023-01-22T00:21:03.028Z,-0.38
2023-01-22T00:23:29.435Z,-0.30
2023-01-22T00:26:05.125Z,-0.33
2023-01-22T00:28:31.534Z,-0.24
2023-01-22T00:30:58.699Z,-0.20
2023-01-22T00:33:25.060Z,-0.16
2023-01-22T00:35:51.420Z,-0.16
2023-01-22T00:38:18.900Z,-0.23
2023-01-22T00:40:45.239Z,-0.19
2023-01-22T00:43:11.567Z,-0.16
2023-01-22T00:45:45.329Z,-0.20
2023-01-22T00:48:11.661Z,-0.12
2023-01-22T00:50:37.989Z,-0.11
2023-01-22T00:53:04.417Z,-0.05
2023-01-22T00:55:31.072Z,0.00
2023-01-22T00:57:57.381Z,-0.01
2023-01-22T01:00:23.757Z,-0.03
2023-01-22T01:03:08.971Z,-0.08
2023-01-22T01:05:35.439Z,-0.12
2023-01-22T01:08:06.041Z,-0.12
2023-01-22T01:10:32.531Z,-0.16
2023-01-22T01:12:58.892Z,-0.20
2023-01-22T01:15:29.473Z,-0.11
2023-01-22T01:17:55.843Z,-0.32
2023-01-22T01:20:22.358Z,-0.15
2023-01-22T01:22:48.694Z,-0.23
2023-01-22T01:25:15.032Z,-0.18
2023-01-22T01:27:41.423Z,-0.19
2023-01-22T01:30:08.124Z,-0.18
2023-01-22T01:32:34.509Z,-0.21
2023-01-22T01:35:02.017Z,-0.11
2023-01-22T01:37:28.335Z,-0.06
2023-01-22T01:39:54.694Z,-0.03
2023-01-22T01:42:23.379Z,-0.09
2023-01-22T01:45:09.630Z,-0.07
2023-01-22T01:47:38.121Z,-0.16
2023-01-22T01:50:05.039Z,-0.10
2023-01-22T01:52:34.474Z,-0.15
2023-01-22T01:55:00.973Z,-0.09
2023-01-22T01:57:29.062Z,-0.17
2023-01-22T01:59:56.349Z,-0.24
2023-01-22T02:02:22.987Z,-0.17
2023-01-22T02:04:50.863Z,-0.10
2023-01-22T02:07:17.653Z,-0.27
2023-01-22T02:09:43.980Z,-0.10
2023-01-22T02:12:11.457Z,-0.07
2023-01-22T02:14:39.987Z,-0.17
2023-01-22T02:17:14.540Z,-0.02
2023-01-22T02:19:41.325Z,-0.01
2023-01-22T02:22:25.306Z,0.02
2023-01-22T02:24:51.656Z,0.00
2023-01-22T02:27:18.025Z,0.03
2023-01-22T02:29:44.617Z,0.05
2023-01-22T02:32:11.620Z,0.11
2023-01-22T02:34:38.206Z,0.04
2023-01-22T02:37:04.672Z,0.16
2023-01-22T02:39:31.145Z,0.09
2023-01-22T02:41:58.106Z,0.13
2023-01-22T02:44:24.427Z,0.02
2023-01-22T02:46:50.769Z,-0.01
2023-01-22T02:49:17.104Z,-0.01
2023-01-22T02:51:44.425Z,-0.03
2023-01-22T02:54:10.754Z,0.04
2023-01-22T02:56:37.098Z,-0.07
2023-01-22T02:59:04.411Z,-0.01
2023-01-22T03:01:31.044Z,-0.02
2023-01-22T03:03:59.052Z,-0.06
2023-01-22T03:06:27.231Z,-0.06
2023-01-22T03:08:55.355Z,-0.02
2023-01-22T03:11:21.770Z,-0.03
2023-01-22T03:14:06.793Z,0.02
2023-01-22T03:16:51.972Z,0.04
2023-01-22T03:19:37.621Z,0.01
2023-01-22T03:22:03.967Z,-0.03
2023-01-22T03:24:30.297Z,0.03
2023-01-22T03:26:56.621Z,-0.02
2023-01-22T03:29:22.963Z,-0.04
2023-01-22T03:31:49.371Z,0.00
2023-01-22T03:34:17.729Z,-0.01
2023-01-22T03:36:44.375Z,-0.04
2023-01-22T03:39:11.136Z,-0.01
2023-01-22T03:41:37.676Z,-0.05
2023-01-22T03:44:04.439Z,-0.06
2023-01-22T03:46:31.167Z,-0.02
2023-01-22T03:48:57.616Z,-0.04
2023-01-22T03:51:24.435Z,-0.03
2023-01-22T03:53:55.862Z,-0.10
2023-01-22T03:56:23.195Z,-0.14
2023-01-22T03:58:50.049Z,-0.13
2023-01-22T04:01:18.619Z,-0.14
2023-01-22T04:03:45.074Z,-0.05
2023-01-22T04:06:12.139Z,-0.04
2023-01-22T04:08:39.697Z,-0.09
2023-01-22T04:11:06.530Z,-0.07
2023-01-22T04:13:33.785Z,-0.12
2023-01-22T04:16:00.442Z,0.06
2023-01-22T04:18:26.875Z,0.05
2023-01-22T04:21:03.194Z,0.16
2023-01-22T04:23:29.581Z,0.10
2023-01-22T04:25:55.941Z,0.16
2023-01-22T04:28:22.309Z,0.24
2023-01-22T04:30:50.269Z,0.21
2023-01-22T04:33:16.682Z,0.21
2023-01-22T04:35:43.123Z,0.18
2023-01-22T04:38:11.767Z,0.28
2023-01-22T04:40:38.157Z,0.30
2023-01-22T04:43:05.402Z,0.30
2023-01-22T04:45:31.966Z,0.30
2023-01-22T04:47:58.586Z,0.25
2023-01-22T04:50:26.725Z,0.18
2023-01-22T04:52:54.008Z,0.20
2023-01-22T04:55:20.813Z,0.21
2023-01-22T04:57:47.262Z,0.10
2023-01-22T05:00:14.237Z,0.09
2023-01-22T05:02:40.649Z,0.07
2023-01-22T05:05:07.846Z,0.12
2023-01-22T05:07:34.440Z,0.12
2023-01-22T05:10:00.880Z,-0.16
2023-01-22T05:12:27.227Z,0.05
2023-01-22T05:14:53.564Z,0.11
2023-01-22T05:17:21.110Z,0.21
2023-01-22T05:19:47.426Z,0.05
2023-01-22T05:22:13.821Z,0.19
2023-01-22T05:24:40.253Z,0.17
2023-01-22T05:27:06.585Z,0.20
2023-01-22T05:29:32.946Z,0.20
2023-01-22T05:31:59.548Z,0.22
2023-01-22T05:34:26.870Z,0.26
2023-01-22T05:36:53.273Z,0.22
2023-01-22T05:39:20.104Z,0.18
2023-01-22T05:41:47.403Z,0.18
2023-01-22T05:44:14.250Z,0.05
2023-01-22T05:46:40.667Z,0.10
2023-01-22T05:49:08.103Z,0.16
2023-01-22T05:51:34.708Z,0.16
2023-01-22T05:54:01.127Z,0.19
2023-01-22T05:56:27.601Z,0.16
2023-01-22T05:58:53.924Z,0.09
2023-01-22T06:01:20.238Z,0.15
2023-01-22T06:03:46.767Z,0.19
2023-01-22T06:06:14.808Z,0.20
2023-01-22T06:08:41.524Z,0.18
2023-01-22T06:11:10.921Z,0.16
2023-01-22T06:13:37.887Z,0.17
2023-01-22T06:16:05.917Z,0.17
2023-01-22T06:18:32.313Z,0.20
2023-01-22T06:21:03.011Z,0.24
2023-01-22T06:23:29.702Z,0.21
2023-01-22T06:25:57.117Z,0.22
2023-01-22T06:28:23.854Z,0.34
2023-01-22T06:30:50.775Z,0.17
2023-01-22T06:33:17.179Z,0.22
2023-01-22T06:35:43.645Z,0.25
2023-01-22T06:38:11.987Z,0.14
2023-01-22T06:40:38.323Z,0.16
2023-01-22T06:43:05.422Z,0.18
2023-01-22T06:45:31.778Z,0.23
2023-01-22T06:47:58.156Z,0.22
2023-01-22T06:50:25.639Z,0.09
2023-01-22T06:52:51.961Z,0.15
2023-01-22T06:55:18.311Z,0.10
2023-01-22T06:57:45.662Z,0.06
2023-01-22T07:00:12.236Z,0.06
2023-01-22T07:02:38.559Z,0.13
2023-01-22T07:05:05.989Z,0.16
2023-01-22T07:07:32.383Z,0.16
2023-01-22T07:09:58.729Z,0.18
2023-01-22T07:12:25.084Z,0.04
2023-01-22T07:14:51.419Z,0.15
2023-01-22T07:17:17.790Z,0.15
2023-01-22T07:19:44.118Z,0.31
2023-01-22T07:22:10.593Z,0.33
2023-01-22T07:24:36.924Z,0.44
2023-01-22T07:27:03.482Z,0.46
2023-01-22T07:29:31.841Z,0.48
2023-01-22T07:31:58.274Z,0.48
2023-01-22T07:34:25.669Z,0.51
2023-01-22T07:36:52.076Z,0.54
2023-01-22T07:39:18.504Z,0.59
2023-01-22T07:41:46.853Z,0.58
2023-01-22T07:44:13.329Z,0.62
2023-01-22T07:46:39.735Z,0.63
2023-01-22T07:49:07.321Z,0.62
2023-01-22T07:51:33.728Z,0.58
2023-01-22T07:54:00.127Z,0.51
2023-01-22T07:56:26.645Z,0.64
2023-01-22T07:58:53.024Z,0.69
2023-01-22T08:01:19.374Z,0.75
2023-01-22T08:03:57.880Z,0.79
2023-01-22T08:06:24.355Z,0.77
2023-01-22T08:08:50.715Z,0.79
2023-01-22T08:11:17.090Z,0.80
2023-01-22T08:13:43.608Z,0.84
2023-01-22T08:16:10.036Z,0.74
2023-01-22T08:18:36.804Z,0.77
2023-01-22T08:21:06.901Z,0.76
2023-01-22T08:23:33.992Z,0.77
2023-01-22T08:26:01.306Z,0.59
2023-01-22T08:28:27.733Z,0.72
2023-01-22T08:30:58.581Z,0.74
2023-01-22T08:33:25.045Z,0.76
2023-01-22T08:35:51.686Z,0.62
2023-01-22T08:38:18.205Z,0.63
2023-01-22T08:40:48.435Z,0.67
2023-01-22T08:43:24.136Z,0.74
2023-01-22T08:45:50.615Z,0.74
2023-01-22T08:48:17.582Z,0.75
2023-01-22T08:50:44.063Z,0.62
2023-01-22T08:53:10.399Z,0.68
2023-01-22T08:55:36.748Z,0.71
2023-01-22T08:58:03.163Z,0.73
2023-01-22T09:00:37.437Z,0.69
2023-01-22T09:03:03.850Z,0.69
2023-01-22T09:05:30.199Z,0.70
2023-01-22T09:08:02.694Z,0.71
2023-01-22T09:10:29.040Z,0.75
2023-01-22T09:12:58.178Z,0.74
2023-01-22T09:15:27.629Z,0.73
2023-01-22T09:17:53.981Z,0.77
2023-01-22T09:20:20.804Z,0.76
2023-01-22T09:22:48.377Z,0.85
2023-01-22T09:25:17.001Z,0.92
2023-01-22T09:27:43.355Z,0.85
2023-01-22T09:30:10.874Z,0.96
2023-01-22T09:32:37.291Z,1.03
2023-01-22T09:35:03.731Z,1.11
2023-01-22T09:37:30.065Z,1.18
2023-01-22T09:39:56.544Z,1.25
2023-01-22T09:42:29.203Z,1.30
2023-01-22T09:45:00.509Z,1.39
2023-01-22T09:47:47.553Z,1.29
2023-01-22T09:50:21.754Z,1.38
2023-01-22T09:52:50.213Z,1.49
2023-01-22T09:55:18.588Z,1.51
2023-01-22T09:57:45.915Z,1.56
2023-01-22T10:00:20.970Z,1.65
2023-01-22T10:02:51.260Z,1.70
2023-01-22T10:05:29.343Z,1.65
2023-01-22T10:08:04.884Z,1.45
2023-01-22T10:10:32.806Z,1.59
2023-01-22T10:13:02.405Z,1.52
2023-01-22T10:15:34.733Z,1.55
2023-01-22T10:18:05.812Z,1.44
2023-01-22T10:20:33.301Z,1.43
2023-01-22T10:23:16.580Z,1.42
2023-01-22T10:25:42.911Z,1.39
2023-01-22T10:28:09.964Z,1.43
2023-01-22T10:30:44.602Z,1.49
2023-01-22T10:33:17.921Z,1.47
2023-01-22T10:35:52.179Z,1.43
2023-01-22T10:38:29.882Z,1.43
2023-01-22T10:41:00.228Z,1.47
2023-01-22T10:43:35.229Z,1.38
2023-01-22T10:46:06.936Z,1.38
2023-01-22T10:48:39.522Z,1.43
2023-01-22T10:51:22.353Z,1.48
2023-01-22T10:53:57.221Z,1.61
2023-01-22T10:56:34.265Z,1.68
2023-01-22T10:59:23.147Z,1.75
2023-01-22T11:02:18.165Z,1.70
2023-01-22T11:04:48.445Z,1.64
2023-01-22T11:07:21.731Z,1.50
2023-01-22T11:09:55.162Z,1.63
2023-01-22T11:12:41.206Z,1.72
2023-01-22T11:15:13.440Z,1.79
2023-01-22T11:17:45.114Z,1.63
2023-01-22T11:20:47.910Z,1.85
2023-01-22T11:23:22.727Z,1.63
2023-01-22T11:26:19.611Z,1.66
2023-01-22T11:28:46.026Z,1.75
2023-01-22T11:31:26.557Z,1.76
2023-01-22T11:34:07.889Z,1.78
2023-01-22T11:36:37.485Z,1.83
2023-01-22T11:39:23.961Z,1.82
2023-01-22T11:42:01.602Z,1.81
2023-01-22T11:44:52.807Z,1.78
2023-01-22T11:47:22.125Z,1.78
2023-01-22T11:49:59.501Z,1.70
2023-01-22T11:52:31.819Z,1.76
2023-01-22T11:55:16.621Z,1.61
2023-01-22T11:57:44.805Z,1.61
2023-01-22T12:00:43.529Z,1.75
2023-01-22T12:03:19.171Z,1.64
2023-01-22T12:05:56.779Z,1.76
2023-01-22T12:08:29.319Z,1.79
2023-01-22T12:11:07.562Z,1.68
2023-01-22T12:13:53.249Z,1.80
2023-01-22T12:16:43.607Z,1.74
2023-01-22T12:19:21.931Z,1.69
2023-01-22T12:22:06.439Z,1.71
2023-01-22T12:24:49.553Z,1.74
2023-01-22T12:27:38.698Z,1.93
2023-01-22T12:30:09.137Z,2.03
2023-01-22T12:32:43.674Z,1.98
2023-01-22T12:35:20.054Z,2.13
2023-01-22T12:38:12.120Z,2.35
2023-01-22T12:40:59.106Z,2.46
2023-01-22T12:43:34.903Z,2.31
2023-01-22T12:46:02.503Z,2.28
2023-01-22T12:48:28.855Z,2.22
2023-01-22T12:50:57.271Z,2.27
2023-01-22T12:53:30.892Z,2.28
2023-01-22T12:56:03.102Z,2.18
2023-01-22T12:58:38.002Z,2.45
2023-01-22T13:01:13.455Z,2.29
2023-01-22T13:03:40.744Z,2.34
2023-01-22T13:06:39.669Z,2.36
2023-01-22T13:09:07.513Z,2.42
2023-01-22T13:11:39.171Z,2.51
2023-01-22T13:14:20.852Z,2.51
2023-01-22T13:17:06.540Z,2.49
2023-01-22T13:19:42.038Z,2.41
2023-01-22T13:22:30.171Z,2.31
2023-01-22T13:24:57.675Z,2.06
2023-01-22T13:27:26.346Z,2.23
2023-01-22T13:30:23.222Z,2.29
2023-01-22T13:33:10.820Z,2.18
2023-01-22T13:35:40.283Z,2.18
2023-01-22T13:38:07.142Z,2.15
2023-01-22T13:40:46.251Z,2.20
2023-01-22T13:43:20.716Z,2.27
2023-01-22T13:45:50.114Z,2.17
2023-01-22T13:48:17.973Z,2.21
2023-01-22T13:51:04.737Z,2.15
2023-01-22T13:53:42.939Z,2.14
2023-01-22T13:56:22.955Z,2.13
2023-01-22T13:58:49.858Z,2.25
2023-01-22T14:01:29.955Z,2.28
2023-01-22T14:04:00.710Z,2.20
2023-01-22T14:06:43.114Z,2.21
2023-01-22T14:09:13.461Z,2.02
2023-01-22T14:11:49.935Z,2.14
2023-01-22T14:14:17.687Z,2.09
2023-01-22T14:16:44.679Z,2.13
2023-01-22T14:19:11.318Z,2.14
2023-01-22T14:21:40.352Z,2.15
2023-01-22T14:24:07.052Z,1.99
2023-01-22T14:26:33.792Z,1.95
2023-01-22T14:29:00.156Z,2.08
2023-01-22T14:31:27.582Z,2.14
2023-01-22T14:33:59.403Z,2.11
2023-01-22T14:36:25.850Z,2.12
2023-01-22T14:38:53.589Z,2.03
2023-01-22T14:41:26.135Z,2.00
2023-01-22T14:44:01.608Z,2.02
2023-01-22T14:46:29.107Z,2.04
2023-01-22T14:48:55.684Z,1.81
2023-01-22T14:51:22.080Z,1.92
2023-01-22T14:53:58.508Z,1.93
2023-01-22T14:56:25.341Z,2.02
2023-01-22T14:58:51.721Z,1.93
2023-01-22T15:01:19.190Z,1.90
2023-01-22T15:03:45.790Z,1.88
2023-01-22T15:06:12.147Z,1.62
2023-01-22T15:08:38.605Z,1.62
2023-01-22T15:11:06.149Z,1.69
2023-01-22T15:13:36.810Z,1.77
2023-01-22T15:16:15.162Z,1.78
2023-01-22T15:18:41.913Z,1.77
2023-01-22T15:21:08.284Z,1.79
2023-01-22T15:23:56.287Z,1.86
2023-01-22T15:26:24.208Z,1.88
2023-01-22T15:28:54.740Z,1.79
2023-01-22T15:31:45.753Z,1.73
2023-01-22T15:34:17.487Z,1.67
2023-01-22T15:36:49.974Z,1.72
2023-01-22T15:39:18.473Z,1.69
2023-01-22T15:41:45.379Z,1.51
2023-01-22T15:44:13.280Z,1.59
2023-01-22T15:46:40.405Z,1.52
2023-01-22T15:49:18.558Z,1.40
2023-01-22T15:52:04.141Z,1.56
2023-01-22T15:55:00.651Z,1.44
2023-01-22T15:57:45.282Z,1.41
2023-01-22T16:00:17.289Z,1.60
2023-01-22T16:02:54.199Z,1.62
2023-01-22T16:05:22.877Z,1.31
2023-01-22T16:07:52.293Z,1.42
2023-01-22T16:10:19.956Z,1.31
2023-01-22T16:12:48.584Z,1.35
2023-01-22T16:15:22.276Z,1.41
2023-01-22T16:17:48.601Z,1.55
2023-01-22T16:20:43.838Z,1.61
2023-01-22T16:23:29.310Z,1.60
2023-01-22T16:25:55.746Z,1.55
2023-01-22T16:28:22.107Z,1.55
2023-01-22T16:30:48.936Z,1.51
2023-01-22T16:33:20.640Z,1.42
2023-01-22T16:35:46.972Z,1.54
2023-01-22T16:38:13.377Z,1.52
2023-01-22T16:40:41.918Z,1.50
2023-01-22T16:43:08.280Z,1.55
2023-01-22T16:45:35.346Z,1.43
2023-01-22T16:48:24.568Z,1.46
2023-01-22T16:50:51.106Z,1.48
2023-01-22T16:53:26.554Z,1.27
2023-01-22T16:55:52.911Z,1.52
2023-01-22T16:58:32.361Z,1.53
2023-01-22T17:00:58.858Z,1.46
2023-01-22T17:03:25.238Z,1.41
2023-01-22T17:05:55.872Z,1.44
2023-01-22T17:08:23.295Z,1.50
2023-01-22T17:11:13.642Z,1.56
2023-01-22T17:13:39.983Z,1.48
2023-01-22T17:16:06.652Z,1.57
2023-01-22T17:18:36.119Z,1.64
2023-01-22T17:21:06.846Z,1.41
2023-01-22T17:23:33.347Z,1.52
2023-01-22T17:25:59.730Z,1.55
2023-01-22T17:28:26.223Z,1.60
2023-01-22T17:30:53.750Z,1.47
2023-01-22T17:33:32.829Z,1.48
2023-01-22T17:36:22.602Z,1.52
2023-01-22T17:38:49.136Z,1.44
2023-01-22T17:41:22.872Z,1.56
2023-01-22T17:43:52.096Z,1.46
2023-01-22T17:46:29.878Z,1.51
2023-01-22T17:49:05.797Z,1.30
2023-01-22T17:51:44.530Z,1.28
2023-01-22T17:54:10.918Z,1.39
2023-01-22T17:56:40.120Z,1.40
2023-01-22T17:59:07.155Z,1.33
2023-01-22T18:01:35.116Z,1.45
2023-01-22T18:04:03.078Z,1.37
2023-01-22T18:06:29.449Z,1.39
2023-01-22T18:08:56.020Z,1.18
2023-01-22T18:11:33.037Z,1.34
2023-01-22T18:14:00.863Z,1.37
2023-01-22T18:16:28.769Z,1.31
2023-01-22T18:18:56.917Z,1.39
2023-01-22T18:21:23.399Z,1.34
2023-01-22T18:23:57.187Z,1.46
2023-01-22T18:26:23.888Z,1.38
2023-01-22T18:28:52.192Z,1.41
2023-01-22T18:31:33.389Z,1.45
2023-01-22T18:34:02.310Z,1.36
2023-01-22T18:36:30.095Z,1.40
2023-01-22T18:39:00.695Z,1.27
2023-01-22T18:41:27.571Z,1.21
2023-01-22T18:43:56.126Z,1.27
2023-01-22T18:46:24.590Z,1.23
2023-01-22T18:48:55.299Z,1.31
2023-01-22T18:51:21.768Z,1.27
2023-01-22T18:53:48.316Z,1.27
2023-01-22T18:56:14.782Z,1.40
2023-01-22T18:58:44.330Z,1.38
2023-01-22T19:01:31.155Z,1.35
2023-01-22T19:04:07.094Z,1.39
2023-01-22T19:06:36.813Z,1.33
2023-01-22T19:09:08.260Z,1.27
2023-01-22T19:11:36.660Z,1.30
2023-01-22T19:14:23.548Z,1.27
2023-01-22T19:17:03.680Z,1.11
2023-01-22T19:19:29.989Z,1.22
2023-01-22T19:22:08.591Z,1.34
2023-01-22T19:24:34.911Z,1.25
2023-01-22T19:27:01.371Z,1.22
2023-01-22T19:29:59.357Z,1.18
2023-01-22T19:32:37.965Z,1.30
2023-01-22T19:35:07.464Z,1.20
2023-01-22T19:37:41.744Z,1.25
2023-01-22T19:40:09.032Z,1.21
2023-01-22T19:42:35.501Z,1.23
2023-01-22T19:45:01.878Z,1.28
2023-01-22T19:47:30.298Z,1.28
2023-01-22T19:49:56.623Z,1.20
2023-01-22T19:52:23.039Z,1.24
2023-01-22T19:54:50.554Z,1.21
2023-01-22T19:57:16.985Z,1.16
2023-01-22T19:59:43.439Z,1.17
2023-01-22T20:02:18.483Z,1.25
2023-01-22T20:04:46.043Z,1.24
2023-01-22T20:07:12.884Z,1.23
2023-01-22T20:09:55.568Z,1.23
2023-01-22T20:12:21.921Z,1.18
2023-01-22T20:14:49.261Z,1.24
2023-01-22T20:17:16.699Z,1.25
2023-01-22T20:19:43.110Z,1.14
2023-01-22T20:22:10.834Z,1.24
2023-01-22T20:24:39.691Z,1.24
2023-01-22T20:27:06.643Z,1.26
2023-01-22T20:29:33.134Z,1.30
2023-01-22T20:32:09.822Z,1.27
2023-01-22T20:35:17.224Z,1.16
2023-01-22T20:37:44.138Z,1.18
2023-01-22T20:40:18.436Z,1.19
2023-01-22T20:42:44.764Z,1.29
2023-01-22T20:45:17.573Z,1.35
2023-01-22T20:47:44.968Z,1.24
2023-01-22T20:50:24.677Z,1.26
2023-01-22T20:52:53.434Z,1.37
2023-01-22T20:55:26.236Z,1.43
2023-01-22T20:57:52.659Z,1.38
2023-01-22T21:00:19.175Z,1.21
2023-01-22T21:02:45.555Z,1.24
2023-01-22T21:05:11.890Z,1.21
2023-01-22T21:07:38.256Z,1.30
2023-01-22T21:10:04.959Z,1.24
2023-01-22T21:12:31.350Z,1.34
2023-01-22T21:15:18.111Z,1.26
2023-01-22T21:17:44.423Z,1.35
2023-01-22T21:20:11.714Z,1.38
2023-01-22T21:22:38.126Z,1.38
2023-01-22T21:25:04.712Z,1.30
2023-01-22T21:27:31.043Z,1.35
2023-01-22T21:29:57.870Z,1.35
2023-01-22T21:32:30.596Z,1.30
2023-01-22T21:34:57.139Z,1.35
2023-01-22T21:37:23.461Z,1.33
2023-01-22T21:39:49.787Z,1.20
2023-01-22T21:42:34.968Z,1.10
2023-01-22T21:45:20.344Z,1.23
2023-01-22T21:47:46.784Z,1.26
2023-01-22T21:50:21.284Z,1.28
2023-01-22T21:52:51.736Z,1.23
2023-01-22T21:55:18.219Z,1.23
2023-01-22T21:57:44.669Z,1.27
2023-01-22T22:00:11.298Z,1.26
2023-01-22T22:02:37.673Z,1.30
2023-01-22T22:05:11.018Z,1.22
2023-01-22T22:07:37.334Z,1.23
2023-01-22T22:10:04.291Z,1.27
2023-01-22T22:12:33.357Z,1.26
2023-01-22T22:14:59.689Z,1.17
2023-01-22T22:17:26.090Z,1.24
2023-01-22T22:20:08.402Z,1.23
2023-01-22T22:22:34.744Z,1.29
2023-01-22T22:25:03.535Z,1.25
2023-01-22T22:27:29.929Z,1.38
2023-01-22T22:29:56.317Z,1.32
2023-01-22T22:32:22.740Z,1.28
2023-01-22T22:34:49.430Z,1.28
2023-01-22T22:37:16.447Z,1.28
2023-01-22T22:39:43.006Z,1.28
2023-01-22T22:42:09.458Z,1.16
2023-01-22T22:44:37.434Z,1.17
2023-01-22T22:47:04.794Z,0.92
2023-01-22T22:49:31.743Z,0.96
2023-01-22T22:51:58.229Z,0.92
2023-01-22T22:54:26.043Z,0.98
2023-01-22T22:56:52.796Z,0.98
2023-01-22T22:59:21.953Z,1.03
2023-01-22T23:02:09.224Z,0.99
2023-01-22T23:04:36.024Z,1.06
2023-01-22T23:07:11.500Z,0.98
2023-01-22T23:09:42.106Z,1.04
2023-01-22T23:12:08.613Z,1.10
2023-01-22T23:14:36.376Z,1.08
2023-01-22T23:17:04.681Z,1.02
2023-01-22T23:19:45.016Z,0.99
2023-01-22T23:22:11.409Z,1.03
2023-01-22T23:24:38.816Z,1.07
2023-01-22T23:27:05.150Z,0.98
2023-01-22T23:29:32.534Z,0.96
2023-01-22T23:31:58.901Z,0.95
2023-01-22T23:34:25.308Z,0.96
2023-01-22T23:36:51.764Z,0.91
2023-01-22T23:39:19.154Z,0.99
2023-01-22T23:41:45.532Z,0.98
2023-01-22T23:44:11.923Z,1.00
2023-01-22T23:46:38.803Z,1.05
2023-01-22T23:49:05.567Z,1.01
2023-01-22T23:51:31.929Z,0.93
2023-01-22T23:53:58.373Z,0.95
2023-01-22T23:56:25.930Z,1.00
2023-01-22T23:59:26.554Z,1.02
